createdAt,value
2018-09-20T00:02:03.348Z,19.00
2018-09-20T00:04:33.285Z,20.87
2018-09-20T00:07:02.565Z,19.70
2018-09-20T00:09:31.602Z,19.27
2018-09-20T00:12:01.181Z,20.30
2018-09-20T00:14:30.251Z,17.13
2018-09-20T00:16:59.532Z,20.63
2018-09-20T00:19:28.618Z,19.17
2018-09-20T00:21:57.785Z,18.97
2018-09-20T00:24:26.593Z,17.43
2018-09-20T00:26:56.092Z,16.47
2018-09-20T00:29:25.198Z,17.23
2018-09-20T00:31:54.059Z,16.87
2018-09-20T00:34:23.137Z,31.53
2018-09-20T00:36:52.205Z,20.90
2018-09-20T00:39:21.742Z,21.17
2018-09-20T00:41:50.690Z,18.57
2018-09-20T00:44:19.961Z,20.23
2018-09-20T00:46:49.610Z,17.50
2018-09-20T00:49:18.882Z,19.23
2018-09-20T00:51:48.417Z,16.90
2018-09-20T00:54:17.321Z,17.00
2018-09-20T00:56:46.401Z,19.60
2018-09-20T00:59:15.401Z,20.93
2018-09-20T01:01:44.287Z,18.60
2018-09-20T01:04:13.116Z,15.63
2018-09-20T01:06:42.002Z,20.00
2018-09-20T01:09:11.742Z,23.00
2018-09-20T01:11:41.067Z,23.67
2018-09-20T01:14:10.247Z,22.30
2018-09-20T01:16:39.240Z,25.33
2018-09-20T01:19:08.234Z,23.83
2018-09-20T01:21:37.173Z,19.40
2018-09-20T01:24:06.087Z,18.60
2018-09-20T01:26:35.098Z,18.57
2018-09-20T01:29:03.942Z,22.37
2018-09-20T01:31:32.726Z,23.50
2018-09-20T01:34:02.476Z,24.10
2018-09-20T01:36:31.300Z,22.97
2018-09-20T01:39:00.417Z,23.40
2018-09-20T01:41:29.638Z,23.07
2018-09-20T01:43:58.466Z,20.80
2018-09-20T01:46:27.526Z,19.63
2018-09-20T01:48:56.374Z,22.40
2018-09-20T01:51:25.708Z,24.63
2018-09-20T01:53:54.503Z,18.43
2018-09-20T01:56:23.558Z,21.60
2018-09-20T01:58:52.654Z,24.47
2018-09-20T02:01:21.533Z,21.90
2018-09-20T02:03:50.641Z,19.90
2018-09-20T02:06:19.857Z,19.70
2018-09-20T02:08:49.272Z,21.70
2018-09-20T02:11:18.017Z,22.50
2018-09-20T02:13:47.352Z,19.17
2018-09-20T02:16:16.353Z,23.77
2018-09-20T02:18:45.135Z,22.03
2018-09-20T02:21:14.397Z,20.40
2018-09-20T02:23:43.641Z,23.63
2018-09-20T02:26:12.415Z,17.60
2018-09-20T02:28:41.484Z,20.20
2018-09-20T02:31:10.333Z,18.87
2018-09-20T02:33:39.293Z,19.67
2018-09-20T02:36:08.593Z,18.00
2018-09-20T02:38:37.518Z,18.73
2018-09-20T02:41:06.880Z,24.23
2018-09-20T02:43:36.453Z,16.87
2018-09-20T02:46:05.603Z,17.77
2018-09-20T02:48:34.883Z,23.00
2018-09-20T02:51:03.777Z,16.00
2018-09-20T02:53:32.603Z,18.43
2018-09-20T02:56:01.680Z,19.10
2018-09-20T02:58:31.189Z,17.73
2018-09-20T03:01:00.024Z,25.93
2018-09-20T03:03:29.461Z,20.20
2018-09-20T03:05:58.782Z,27.07
2018-09-20T03:08:28.411Z,21.37
2018-09-20T03:10:57.738Z,18.60
2018-09-20T03:13:26.619Z,21.17
2018-09-20T03:15:55.630Z,17.93
2018-09-20T03:18:24.386Z,19.30
2018-09-20T03:20:53.514Z,18.60
2018-09-20T03:23:23.282Z,20.97
2018-09-20T03:25:52.525Z,22.47
2018-09-20T03:28:21.601Z,16.20
2018-09-20T03:30:51.175Z,21.40
2018-09-20T03:33:20.713Z,23.57
2018-09-20T03:35:50.323Z,19.40
2018-09-20T03:38:19.553Z,19.93
2018-09-20T03:40:48.905Z,23.37
2018-09-20T03:43:17.974Z,20.90
2018-09-20T03:45:47.062Z,20.93
2018-09-20T03:48:16.128Z,19.03
2018-09-20T03:50:44.964Z,23.80
2018-09-20T03:53:14.190Z,19.47
2018-09-20T03:55:43.080Z,20.17
2018-09-20T03:58:11.897Z,19.50
2018-09-20T04:00:40.929Z,16.47
2018-09-20T04:03:10.068Z,21.13
2018-09-20T04:05:38.957Z,17.43
2018-09-20T04:08:08.158Z,17.93
2018-09-20T04:10:37.414Z,22.97
2018-09-20T04:13:06.797Z,22.57
2018-09-20T04:15:35.999Z,21.33
2018-09-20T04:18:05.027Z,24.30
2018-09-20T04:20:33.835Z,20.53
2018-09-20T04:23:03.009Z,22.30
2018-09-20T04:25:32.088Z,23.40
2018-09-20T04:28:01.120Z,19.67
2018-09-20T04:30:30.922Z,23.47
2018-09-20T04:33:00.181Z,22.40
2018-09-20T04:35:29.827Z,21.20
2018-09-20T04:37:59.116Z,20.93
2018-09-20T04:40:28.054Z,19.53
2018-09-20T04:42:57.149Z,25.87
2018-09-20T04:45:26.330Z,22.87
2018-09-20T04:47:55.634Z,24.90
2018-09-20T04:50:24.645Z,18.13
2018-09-20T04:52:53.537Z,21.33
2018-09-20T04:55:22.837Z,19.77
2018-09-20T04:57:52.289Z,25.53
2018-09-20T05:03:23.150Z,25.60
2018-09-20T05:14:21.349Z,20.30
2018-09-20T05:16:51.357Z,21.60
2018-09-20T05:19:21.691Z,18.80
2018-09-20T05:21:51.056Z,28.90
2018-09-20T05:24:26.539Z,26.60
2018-09-20T05:26:56.432Z,28.70
2018-09-20T05:29:37.035Z,21.40
2018-09-20T05:32:11.185Z,30.20
2018-09-20T05:37:36.918Z,20.87
2018-09-20T05:40:12.561Z,27.67
2018-09-20T05:42:47.566Z,26.43
2018-09-20T05:45:16.224Z,20.27
2018-09-20T05:47:45.628Z,27.13
2018-09-20T05:50:14.537Z,18.10
2018-09-20T05:52:43.593Z,16.13
2018-09-20T05:55:12.403Z,14.93
2018-09-20T05:57:41.707Z,15.63
2018-09-20T06:00:10.651Z,14.70
2018-09-20T06:02:39.382Z,16.57
2018-09-20T06:05:08.516Z,21.53
2018-09-20T06:07:37.541Z,16.93
2018-09-20T06:10:06.480Z,16.93
2018-09-20T06:12:35.273Z,15.73
2018-09-20T06:15:04.611Z,17.53
2018-09-20T06:17:33.985Z,14.53
2018-09-20T06:20:02.798Z,18.40
2018-09-20T06:22:40.230Z,19.10
2018-09-20T06:25:09.484Z,12.70
2018-09-20T06:27:41.454Z,14.97
2018-09-20T06:30:12.014Z,13.97
2018-09-20T06:32:41.682Z,13.03
2018-09-20T06:35:11.725Z,11.90
2018-09-20T06:37:49.445Z,13.93
2018-09-20T06:40:19.683Z,14.23
2018-09-20T06:42:50.304Z,12.90
2018-09-20T06:45:20.041Z,12.63
2018-09-20T06:47:50.565Z,12.20
2018-09-20T06:50:20.222Z,11.10
2018-09-20T06:52:50.654Z,9.13
2018-09-20T06:55:21.625Z,15.57
2018-09-20T06:57:55.089Z,11.03
2018-09-20T07:00:25.278Z,17.03
2018-09-20T07:02:55.267Z,12.67
2018-09-20T07:08:20.297Z,8.53
2018-09-20T07:10:50.895Z,7.03
2018-09-20T07:13:22.675Z,8.83
2018-09-20T07:15:57.197Z,7.90
2018-09-20T07:18:26.735Z,7.63
2018-09-20T07:20:57.007Z,12.30
2018-09-20T07:23:31.911Z,8.30
2018-09-20T07:26:01.125Z,8.20
2018-09-20T07:28:32.699Z,8.67
2018-09-20T07:31:05.838Z,11.00
2018-09-20T07:33:35.818Z,17.90
2018-09-20T07:36:05.160Z,8.23
2018-09-20T07:38:34.620Z,13.50
2018-09-20T07:41:10.501Z,8.73
2018-09-20T07:43:40.254Z,8.07
2018-09-20T07:46:10.040Z,8.53
2018-09-20T07:48:39.798Z,7.57
2018-09-20T07:51:08.929Z,8.53
2018-09-20T07:53:39.187Z,8.00
2018-09-20T07:56:16.278Z,7.30
2018-09-20T07:58:46.257Z,8.70
2018-09-20T08:01:15.912Z,6.80
2018-09-20T08:03:46.062Z,7.97
2018-09-20T08:06:16.058Z,7.57
2018-09-20T08:08:45.311Z,8.60
2018-09-20T08:11:15.813Z,8.10
2018-09-20T08:13:44.706Z,10.13
2018-09-20T08:16:14.846Z,7.77
2018-09-20T08:18:44.378Z,6.40
2018-09-20T08:21:13.843Z,5.90
2018-09-20T08:23:43.529Z,6.63
2018-09-20T08:26:12.827Z,7.07
2018-09-20T08:28:42.840Z,5.47
2018-09-20T08:31:12.551Z,5.13
2018-09-20T08:33:49.813Z,4.97
2018-09-20T08:38:54.310Z,4.77
2018-09-20T08:41:23.187Z,4.77
2018-09-20T08:43:52.296Z,4.17
2018-09-20T08:46:21.174Z,4.57
2018-09-20T08:48:50.200Z,4.57
2018-09-20T08:51:25.059Z,5.43
2018-09-20T08:53:54.097Z,4.90
2018-09-20T08:56:23.357Z,4.90
2018-09-20T08:58:52.918Z,5.30
2018-09-20T09:01:21.799Z,6.20
2018-09-20T09:03:50.834Z,5.10
2018-09-20T09:06:20.490Z,4.50
2018-09-20T09:08:51.670Z,5.20
2018-09-20T09:11:21.413Z,4.20
2018-09-20T09:13:51.769Z,3.83
2018-09-20T09:16:21.071Z,4.00
2018-09-20T09:18:50.291Z,4.70
2018-09-20T09:21:19.785Z,5.30
2018-09-20T09:23:49.312Z,4.43
2018-09-20T09:26:18.563Z,5.13
2018-09-20T09:28:47.806Z,4.93
2018-09-20T09:31:17.443Z,4.50
2018-09-20T09:33:47.059Z,3.90
2018-09-20T09:36:15.935Z,4.00
2018-09-20T09:38:45.430Z,4.70
2018-09-20T09:41:14.491Z,4.63
2018-09-20T09:43:43.985Z,4.40
2018-09-20T09:46:13.190Z,3.63
2018-09-20T09:48:42.017Z,3.83
2018-09-20T09:51:11.062Z,3.43
2018-09-20T09:53:40.421Z,4.20
2018-09-20T09:56:09.695Z,4.33
2018-09-20T09:58:38.902Z,4.67
2018-09-20T10:01:08.333Z,5.90
2018-09-20T10:03:38.562Z,6.00
2018-09-20T10:06:08.064Z,4.57
2018-09-20T10:08:37.158Z,4.00
2018-09-20T10:11:08.714Z,4.00
2018-09-20T10:13:38.345Z,4.47
2018-09-20T10:16:08.138Z,4.60
2018-09-20T10:18:38.125Z,4.37
2018-09-20T10:21:07.593Z,4.07
2018-09-20T10:23:37.988Z,4.90
2018-09-20T10:26:07.317Z,3.73
2018-09-20T10:28:36.820Z,3.60
2018-09-20T10:31:06.201Z,3.93
2018-09-20T10:33:36.367Z,3.80
2018-09-20T10:36:06.034Z,4.43
2018-09-20T10:38:35.183Z,3.27
2018-09-20T10:41:04.669Z,3.83
2018-09-20T10:43:34.711Z,4.10
2018-09-20T10:46:04.082Z,4.30
2018-09-20T10:48:33.435Z,4.27
2018-09-20T10:51:03.135Z,3.60
2018-09-20T10:53:32.558Z,3.60
2018-09-20T10:56:01.829Z,6.90
2018-09-20T10:58:32.272Z,3.30
2018-09-20T11:01:02.905Z,4.60
2018-09-20T11:03:32.542Z,3.37
2018-09-20T11:06:02.799Z,3.73
2018-09-20T11:08:34.374Z,3.60
2018-09-20T11:13:42.584Z,3.80
2018-09-20T11:16:11.914Z,3.30
2018-09-20T11:18:41.223Z,4.50
2018-09-20T11:21:11.509Z,4.27
2018-09-20T11:23:41.088Z,3.90
2018-09-20T11:26:10.374Z,5.40
2018-09-20T11:28:39.629Z,4.00
2018-09-20T11:31:09.439Z,5.27
2018-09-20T11:33:38.914Z,8.23
2018-09-20T11:36:08.182Z,4.00
2018-09-20T11:38:37.487Z,7.37
2018-09-20T11:41:07.087Z,5.50
2018-09-20T11:43:36.366Z,3.90
2018-09-20T11:46:06.272Z,3.80
2018-09-20T11:48:35.614Z,4.73
2018-09-20T11:51:05.122Z,4.30
2018-09-20T11:53:39.766Z,4.47
2018-09-20T11:56:09.266Z,4.63
2018-09-20T11:58:38.280Z,4.50
2018-09-20T12:01:08.993Z,3.50
2018-09-20T12:03:37.991Z,4.57
2018-09-20T12:06:07.230Z,4.07
2018-09-20T12:08:36.023Z,4.70
2018-09-20T12:11:04.849Z,4.27
2018-09-20T12:13:33.934Z,3.50
2018-09-20T12:16:03.273Z,4.00
2018-09-20T12:18:32.070Z,4.43
2018-09-20T12:21:01.334Z,7.23
2018-09-20T12:23:30.365Z,3.73
2018-09-20T12:25:59.374Z,3.73
2018-09-20T12:28:29.002Z,3.73
2018-09-20T12:30:58.845Z,4.23
2018-09-20T12:33:28.118Z,4.50
2018-09-20T12:35:57.125Z,4.40
2018-09-20T12:38:25.862Z,3.67
2018-09-20T12:40:54.657Z,5.30
2018-09-20T12:43:23.895Z,3.57
2018-09-20T12:45:53.009Z,3.90
2018-09-20T12:48:22.065Z,5.20
2018-09-20T12:50:51.250Z,6.33
2018-09-20T12:53:20.046Z,3.97
2018-09-20T12:55:48.839Z,8.13
2018-09-20T12:58:18.469Z,4.40
2018-09-20T13:00:47.465Z,5.33
2018-09-20T13:03:16.427Z,4.57
2018-09-20T13:05:45.296Z,4.50
2018-09-20T13:08:14.325Z,4.00
2018-09-20T13:10:43.089Z,4.13
2018-09-20T13:13:12.700Z,5.07
2018-09-20T13:15:42.682Z,4.87
2018-09-20T13:18:11.485Z,5.10
2018-09-20T13:20:40.695Z,4.67
2018-09-20T13:23:09.852Z,8.00
2018-09-20T13:25:39.265Z,5.63
2018-09-20T13:28:08.273Z,4.63
2018-09-20T13:30:37.330Z,5.33
2018-09-20T13:33:07.234Z,4.97
2018-09-20T13:35:36.111Z,4.77
2018-09-20T13:38:05.463Z,4.57
2018-09-20T13:40:34.862Z,5.30
2018-09-20T13:43:04.250Z,7.60
2018-09-20T13:45:33.071Z,5.20
2018-09-20T13:48:02.087Z,8.93
2018-09-20T13:50:31.585Z,5.80
2018-09-20T13:53:00.383Z,5.83
2018-09-20T13:55:29.362Z,6.03
2018-09-20T13:57:58.478Z,7.80
2018-09-20T14:00:27.721Z,6.10
2018-09-20T14:02:56.781Z,6.50
2018-09-20T14:05:25.793Z,6.83
2018-09-20T14:07:54.605Z,6.37
2018-09-20T14:10:23.427Z,6.97
2018-09-20T14:12:52.259Z,6.20
2018-09-20T14:15:21.318Z,7.40
2018-09-20T14:17:50.463Z,7.97
2018-09-20T14:20:19.975Z,7.27
2018-09-20T14:22:48.994Z,7.23
2018-09-20T14:25:18.336Z,7.07
2018-09-20T14:27:47.188Z,7.03
2018-09-20T14:30:16.088Z,6.87
2018-09-20T14:32:45.358Z,7.40
2018-09-20T14:35:14.374Z,5.90
2018-09-20T14:37:43.154Z,7.47
2018-09-20T14:40:12.185Z,8.07
2018-09-20T14:42:41.408Z,6.70
2018-09-20T14:45:10.654Z,7.00
2018-09-20T14:47:39.678Z,9.50
2018-09-20T14:50:08.735Z,7.10
2018-09-20T14:52:37.569Z,7.37
2018-09-20T14:55:07.169Z,8.97
2018-09-20T14:57:36.458Z,6.93
2018-09-20T15:00:05.506Z,10.07
2018-09-20T15:02:34.493Z,7.27
2018-09-20T15:05:03.338Z,7.10
2018-09-20T15:07:32.353Z,7.40
2018-09-20T15:11:01.515Z,6.23
2018-09-20T15:13:32.076Z,6.93
2018-09-20T15:16:01.260Z,6.73
2018-09-20T15:18:31.101Z,6.80
2018-09-20T15:21:00.812Z,6.17
2018-09-20T15:23:30.752Z,6.77
2018-09-20T15:26:00.564Z,9.43
2018-09-20T15:28:30.391Z,7.97
2018-09-20T15:31:01.135Z,11.47
2018-09-20T15:33:31.742Z,8.40
2018-09-20T15:36:02.689Z,8.23
2018-09-20T15:38:33.484Z,6.83
2018-09-20T15:41:03.562Z,7.70
2018-09-20T15:43:34.151Z,7.93
2018-09-20T15:46:04.788Z,7.77
2018-09-20T15:48:35.735Z,13.83
2018-09-20T15:51:07.613Z,8.67
2018-09-20T15:53:37.510Z,9.10
2018-09-20T15:56:07.561Z,8.97
2018-09-20T15:58:37.423Z,9.40
2018-09-20T16:01:08.159Z,8.90
2018-09-20T16:03:39.083Z,10.00
2018-09-20T16:06:08.942Z,9.80
2018-09-20T16:08:38.786Z,9.80
2018-09-20T16:11:09.540Z,8.60
2018-09-20T16:13:40.466Z,11.10
2018-09-20T16:16:11.349Z,10.50
2018-09-20T16:18:42.146Z,10.17
2018-09-20T16:21:11.971Z,9.47
2018-09-20T16:23:42.836Z,9.77
2018-09-20T16:26:13.647Z,14.30
2018-09-20T16:28:55.464Z,10.27
2018-09-20T16:31:46.600Z,9.63
2018-09-20T16:34:27.121Z,13.00
2018-09-20T16:37:12.863Z,10.77
2018-09-20T16:39:45.287Z,12.00
2018-09-20T16:42:19.166Z,13.47
2018-09-20T16:44:49.286Z,14.67
2018-09-20T16:47:20.136Z,13.00
2018-09-20T16:49:49.945Z,12.67
2018-09-20T16:52:20.504Z,10.40
2018-09-20T16:54:51.336Z,12.30
2018-09-20T16:57:21.987Z,12.13
2018-09-20T16:59:53.224Z,13.70
2018-09-20T17:02:23.137Z,12.30
2018-09-20T17:04:53.876Z,14.53
2018-09-20T17:07:23.793Z,11.80
2018-09-20T17:09:54.744Z,14.00
2018-09-20T17:12:24.484Z,11.83
2018-09-20T17:14:55.244Z,12.40
2018-09-20T17:17:26.096Z,12.17
2018-09-20T17:19:56.036Z,13.23
2018-09-20T17:22:26.544Z,14.73
2018-09-20T17:24:57.547Z,13.90
2018-09-20T17:27:27.442Z,11.27
2018-09-20T17:29:58.207Z,12.13
2018-09-20T17:32:29.116Z,11.60
2018-09-20T17:34:58.940Z,16.73
2018-09-20T17:37:30.989Z,14.63
2018-09-20T17:40:03.219Z,12.07
2018-09-20T17:42:35.385Z,12.10
2018-09-20T17:45:06.198Z,12.77
2018-09-20T17:47:36.171Z,14.57
2018-09-20T17:50:07.997Z,11.50
2018-09-20T17:52:37.815Z,12.57
2018-09-20T17:55:08.688Z,12.07
2018-09-20T17:57:39.428Z,19.20
2018-09-20T18:00:09.284Z,12.83
2018-09-20T18:02:39.062Z,13.10
2018-09-20T18:05:09.829Z,13.17
2018-09-20T18:07:40.783Z,13.20
2018-09-20T18:10:10.552Z,12.57
2018-09-20T18:12:40.996Z,14.63
2018-09-20T18:15:11.781Z,12.23
2018-09-20T18:17:42.120Z,13.87
2018-09-20T18:20:12.910Z,16.93
2018-09-20T18:22:42.675Z,13.13
2018-09-20T18:25:12.492Z,14.60
2018-09-20T18:27:43.260Z,11.93
2018-09-20T18:30:13.140Z,13.43
2018-09-20T18:32:42.980Z,11.53
2018-09-20T18:35:12.791Z,14.37
2018-09-20T18:37:43.347Z,11.57
2018-09-20T18:40:13.553Z,14.07
2018-09-20T18:42:44.255Z,12.80
2018-09-20T18:45:14.812Z,13.30
2018-09-20T18:47:44.911Z,14.83
2018-09-20T18:50:16.158Z,13.17
2018-09-20T18:52:47.390Z,14.00
2018-09-20T18:55:18.528Z,15.13
2018-09-20T18:57:49.719Z,12.77
2018-09-20T19:00:20.092Z,16.77
2018-09-20T19:02:49.923Z,14.90
2018-09-20T19:05:20.348Z,16.60
2018-09-20T19:07:50.595Z,16.37
2018-09-20T19:10:20.400Z,12.73
2018-09-20T19:12:50.239Z,14.77
2018-09-20T19:15:20.807Z,14.33
2018-09-20T19:17:50.855Z,14.43
2018-09-20T19:20:19.727Z,15.00
2018-09-20T19:22:48.531Z,14.97
2018-09-20T19:25:17.712Z,13.70
2018-09-20T19:27:47.923Z,14.20
2018-09-20T19:30:17.965Z,15.77
2018-09-20T19:32:48.503Z,17.17
2018-09-20T19:35:19.332Z,15.40
2018-09-20T19:37:47.973Z,16.93
2018-09-20T19:40:16.711Z,12.83
2018-09-20T19:42:45.547Z,14.50
2018-09-20T19:45:14.590Z,17.43
2018-09-20T19:47:43.287Z,17.00
2018-09-20T19:50:12.155Z,16.73
2018-09-20T19:52:40.795Z,16.03
2018-09-20T19:55:09.175Z,16.20
2018-09-20T19:57:37.909Z,14.00
2018-09-20T20:00:07.728Z,16.37
2018-09-20T20:02:36.568Z,14.33
2018-09-20T20:05:05.608Z,15.97
2018-09-20T20:07:34.828Z,15.57
2018-09-20T20:10:05.556Z,13.93
2018-09-20T20:12:35.720Z,15.77
2018-09-20T20:15:06.136Z,16.30
2018-09-20T20:17:36.401Z,17.07
2018-09-20T20:20:07.272Z,17.70
2018-09-20T20:22:35.931Z,15.13
2018-09-20T20:25:04.796Z,18.93
2018-09-20T20:27:33.509Z,16.30
2018-09-20T20:30:03.468Z,16.67
2018-09-20T20:32:33.966Z,16.13
2018-09-20T20:35:02.829Z,22.57
2018-09-20T20:37:32.799Z,16.03
2018-09-20T20:40:02.460Z,18.43
2018-09-20T20:42:32.288Z,18.10
2018-09-20T20:45:02.469Z,19.20
2018-09-20T20:47:33.204Z,18.57
2018-09-20T20:50:03.059Z,16.43
2018-09-20T20:52:31.677Z,19.20
2018-09-20T20:55:02.233Z,16.60
2018-09-20T20:57:31.501Z,19.63
2018-09-20T21:00:01.352Z,20.20
2018-09-20T21:02:31.892Z,24.10
2018-09-20T21:05:01.897Z,20.23
2018-09-20T21:07:32.144Z,17.87
2018-09-20T21:10:00.860Z,16.00
2018-09-20T21:12:31.487Z,15.67
2018-09-20T21:15:00.348Z,20.40
2018-09-20T21:17:28.941Z,22.20
2018-09-20T21:19:59.450Z,18.10
2018-09-20T21:22:29.675Z,19.17
2018-09-20T21:25:00.284Z,16.80
2018-09-20T21:27:30.080Z,16.97
2018-09-20T21:29:58.837Z,19.00
2018-09-20T21:32:27.531Z,18.77
2018-09-20T21:34:56.180Z,20.43
2018-09-20T21:37:24.895Z,18.33
2018-09-20T21:39:53.615Z,16.57
2018-09-20T21:42:22.397Z,18.43
2018-09-20T21:44:51.122Z,18.13
2018-09-20T21:47:19.775Z,17.13
2018-09-20T21:49:48.534Z,18.20
2018-09-20T21:52:17.588Z,19.90
2018-09-20T21:54:47.299Z,20.23
2018-09-20T21:57:16.439Z,16.50
2018-09-20T21:59:45.187Z,18.40
2018-09-20T22:02:13.945Z,17.27
2018-09-20T22:04:43.764Z,17.27
2018-09-20T22:07:12.483Z,17.67
2018-09-20T22:09:41.207Z,17.87
2018-09-20T22:12:10.015Z,17.57
2018-09-20T22:14:38.698Z,20.70
2018-09-20T22:17:07.924Z,25.20
2018-09-20T22:19:36.639Z,24.53
2018-09-20T22:22:07.355Z,16.93
2018-09-20T22:24:37.104Z,21.73
2018-09-20T22:27:06.561Z,22.43
2018-09-20T22:29:35.311Z,22.03
2018-09-20T22:32:04.415Z,19.47
2018-09-20T22:34:33.083Z,18.30
2018-09-20T22:37:02.149Z,23.23
2018-09-20T22:39:30.915Z,18.80
2018-09-20T22:41:59.612Z,24.20
2018-09-20T22:44:28.342Z,22.87
2018-09-20T22:46:57.107Z,19.63
2018-09-20T22:49:27.054Z,17.60
2018-09-20T22:51:55.839Z,20.93
2018-09-20T22:54:24.506Z,16.33
2018-09-20T22:56:53.365Z,18.40
2018-09-20T22:59:22.141Z,16.80
2018-09-20T23:01:50.941Z,17.37
2018-09-20T23:04:19.699Z,23.70
2018-09-20T23:06:48.470Z,20.50
2018-09-20T23:09:17.106Z,17.03
2018-09-20T23:11:45.928Z,17.80
2018-09-20T23:14:15.415Z,19.23
2018-09-20T23:16:44.783Z,18.97
2018-09-20T23:19:14.050Z,18.83
2018-09-20T23:21:42.650Z,19.47
2018-09-20T23:24:11.459Z,17.53
2018-09-20T23:26:40.058Z,18.10
2018-09-20T23:29:09.680Z,16.50
2018-09-20T23:31:38.544Z,21.30
2018-09-20T23:34:07.231Z,16.97
2018-09-20T23:36:36.074Z,20.97
2018-09-20T23:39:08.508Z,18.70
2018-09-20T23:41:37.223Z,19.30
2018-09-20T23:44:06.546Z,17.53
2018-09-20T23:46:35.226Z,17.07
2018-09-20T23:49:03.972Z,25.30
2018-09-20T23:51:32.746Z,24.50
2018-09-20T23:54:01.712Z,16.87
2018-09-20T23:56:30.680Z,15.90
2018-09-20T23:58:59.371Z,17.00
